Time;durP1;ratioP1;P1;durP2;ratioP2;P2;SDS_P1;SDS_P2;PMS_P1;PMS_P2;Temp;Humidity;BMP_temperature;BMP_pressure;BME280_temperature;BME280_humidity;BME280_pressure;Samples;Min_cycle;Max_cycle;Signal;HPM_P1;HPM_P2
2023/06/27 00:01:31;;;;;;;1.87;1.07;;;18.70;55.80;;;;;;5087952;28;21001;-72
2023/06/27 00:04:00;;;;;;;0.87;0.87;;;18.70;55.80;;;;;;5090917;28;20620;-72
2023/06/27 00:06:26;;;;;;;0.80;0.70;;;18.60;55.70;;;;;;5093511;28;20661;-72
2023/06/27 00:08:53;;;;;;;1.83;1.23;;;18.60;56.00;;;;;;5094688;28;20948;-72
2023/06/27 00:11:20;;;;;;;1.10;0.77;;;18.60;56.50;;;;;;5084380;28;20651;-72
2023/06/27 00:13:49;;;;;;;1.70;1.40;;;18.60;56.70;;;;;;5091277;28;20643;-72
2023/06/27 00:16:17;;;;;;;2.20;1.07;;;18.60;56.30;;;;;;5092499;28;21246;-72
2023/06/27 00:18:47;;;;;;;1.20;1.10;;;18.60;56.50;;;;;;5090890;28;20654;-72
2023/06/27 00:21:15;;;;;;;0.80;0.80;;;18.60;56.30;;;;;;5087324;28;20649;-72
2023/06/27 00:23:43;;;;;;;3.40;1.00;;;18.60;56.70;;;;;;5097293;28;20628;-72
2023/06/27 00:26:12;;;;;;;1.20;1.10;;;18.50;56.90;;;;;;5095302;28;20663;-72
2023/06/27 00:28:39;;;;;;;1.00;0.90;;;18.60;56.50;;;;;;5086839;28;20620;-72
2023/06/27 00:31:07;;;;;;;1.57;1.10;;;18.50;56.50;;;;;;5097058;28;20675;-72
2023/06/27 00:33:34;;;;;;;1.43;1.30;;;18.50;56.90;;;;;;5086493;28;21013;-73
2023/06/27 00:36:01;;;;;;;0.60;0.60;;;18.40;57.20;;;;;;5095823;28;20678;-72
2023/06/27 00:38:28;;;;;;;1.13;1.10;;;18.40;57.20;;;;;;5097722;28;20705;-72
2023/06/27 00:40:55;;;;;;;1.13;0.90;;;18.40;57.60;;;;;;5105301;28;20637;-73
2023/06/27 00:43:22;;;;;;;4.00;1.40;;;18.40;57.40;;;;;;5098795;28;20629;-72
2023/06/27 00:45:50;;;;;;;1.13;1.10;;;18.30;58.00;;;;;;5096493;28;21311;-72
2023/06/27 00:48:19;;;;;;;2.50;1.47;;;18.30;58.60;;;;;;5101766;28;20627;-72
2023/06/27 00:50:46;;;;;;;0.93;0.80;;;18.30;58.30;;;;;;5095552;28;20655;-73
2023/06/27 00:53:14;;;;;;;3.53;1.20;;;18.30;58.80;;;;;;5101762;28;21194;-72
2023/06/27 00:55:41;;;;;;;0.93;0.70;;;18.20;58.30;;;;;;5101526;28;20676;-72
2023/06/27 00:58:09;;;;;;;1.40;0.80;;;18.10;57.50;;;;;;5090167;28;20655;-72
2023/06/27 01:00:36;;;;;;;3.17;0.70;;;18.10;58.30;;;;;;5097235;28;21201;-72
2023/06/27 01:03:03;;;;;;;1.07;1.00;;;18.20;58.00;;;;;;5099780;28;20629;-72
2023/06/27 01:05:32;;;;;;;1.60;1.50;;;18.30;58.10;;;;;;5098589;28;20647;-72
2023/06/27 01:08:06;;;;;;;1.47;1.37;;;18.20;58.00;;;;;;5101310;28;20612;-73
2023/06/27 01:10:39;;;;;;;0.77;0.77;;;18.20;58.10;;;;;;5089695;28;20640;-72
2023/06/27 01:13:12;;;;;;;0.93;0.60;;;18.10;57.60;;;;;;5104016;28;20823;-72
2023/06/27 01:15:40;;;;;;;1.30;1.20;;;18.20;57.70;;;;;;5095404;28;20672;-72
2023/06/27 01:18:11;;;;;;;1.20;0.87;;;18.30;57.70;;;;;;5102177;28;20619;-72
2023/06/27 01:20:43;;;;;;;1.87;1.07;;;18.20;57.90;;;;;;5095533;28;20653;-72
2023/06/27 01:23:17;;;;;;;1.00;1.00;;;18.20;57.70;;;;;;5096388;28;20629;-72
2023/06/27 01:25:46;;;;;;;1.60;1.27;;;18.20;57.80;;;;;;5100484;28;21139;-72
2023/06/27 01:28:15;;;;;;;1.33;0.90;;;18.20;57.70;;;;;;5103949;28;21275;-72
2023/06/27 01:30:44;;;;;;;1.50;0.90;;;18.20;58.10;;;;;;5093239;28;20928;-72
2023/06/27 01:33:18;;;;;;;1.80;1.70;;;18.30;58.30;;;;;;5094508;28;20624;-72
2023/06/27 01:35:53;;;;;;;1.97;1.77;;;18.20;58.20;;;;;;5089422;28;20661;-72
2023/06/27 01:38:24;;;;;;;1.30;1.20;;;18.10;58.10;;;;;;5100229;28;20647;-72
2023/06/27 01:40:55;;;;;;;2.60;1.60;;;18.00;58.10;;;;;;5083680;28;20776;-72
2023/06/27 01:43:24;;;;;;;1.50;1.40;;;18.00;58.20;;;;;;5099430;28;20656;-72
2023/06/27 01:45:52;;;;;;;0.97;0.97;;;18.10;58.10;;;;;;5090455;28;20752;-72
2023/06/27 01:48:21;;;;;;;0.80;0.80;;;18.10;58.90;;;;;;5092998;28;20639;-72
2023/06/27 01:50:49;;;;;;;1.40;1.30;;;18.00;58.90;;;;;;5097982;28;21017;-72
2023/06/27 01:53:17;;;;;;;0.70;0.70;;;18.10;59.00;;;;;;5089702;28;20625;-72
2023/06/27 01:55:45;;;;;;;1.13;1.03;;;18.10;59.40;;;;;;5086269;28;20768;-72
2023/06/27 01:58:15;;;;;;;0.90;0.90;;;18.00;59.30;;;;;;5096922;28;21048;-72
2023/06/27 02:00:44;;;;;;;1.63;1.13;;;18.00;59.40;;;;;;5092011;28;20653;-72
2023/06/27 02:03:11;;;;;;;1.00;0.90;;;18.00;59.50;;;;;;5097027;28;21197;-72
2023/06/27 02:05:39;;;;;;;1.30;1.20;;;18.00;59.70;;;;;;5094274;28;20653;-72
2023/06/27 02:08:07;;;;;;;1.20;1.10;;;18.00;59.30;;;;;;5097665;28;21197;-72
2023/06/27 02:10:34;;;;;;;1.87;1.00;;;17.90;59.00;;;;;;5096060;28;20844;-72
2023/06/27 02:13:03;;;;;;;1.70;1.30;;;17.90;59.20;;;;;;5095688;28;20621;-72
2023/06/27 02:15:31;;;;;;;1.80;1.70;;;17.80;60.00;;;;;;5091402;28;21142;-72
2023/06/27 02:17:59;;;;;;;1.37;1.27;;;17.70;59.50;;;;;;5094498;28;20973;-72
2023/06/27 02:20:27;;;;;;;1.10;1.07;;;17.70;60.50;;;;;;5088121;28;20683;-72
2023/06/27 02:22:53;;;;;;;1.10;1.00;;;17.70;60.70;;;;;;5092316;28;20630;-72
2023/06/27 02:25:20;;;;;;;1.10;0.93;;;17.70;59.90;;;;;;5096696;28;20649;-72
2023/06/27 02:27:47;;;;;;;1.50;1.40;;;17.70;59.90;;;;;;5096265;28;20715;-72
2023/06/27 02:30:16;;;;;;;1.27;0.90;;;17.80;59.50;;;;;;5083517;28;20615;-72
2023/06/27 02:32:44;;;;;;;1.20;1.10;;;17.80;59.70;;;;;;5094464;28;20635;-72
2023/06/27 02:35:15;;;;;;;1.00;1.00;;;17.70;61.00;;;;;;5093923;28;21231;-72
2023/06/27 02:37:43;;;;;;;1.27;1.03;;;17.60;60.70;;;;;;5098644;28;20801;-72
2023/06/27 02:40:11;;;;;;;1.40;1.30;;;17.50;61.40;;;;;;5092859;28;20627;-72
2023/06/27 02:42:39;;;;;;;1.10;0.90;;;17.50;59.70;;;;;;5102614;28;21207;-72
2023/06/27 02:45:07;;;;;;;1.97;1.10;;;17.50;61.20;;;;;;5093185;28;20624;-72
2023/06/27 02:47:34;;;;;;;1.27;1.00;;;17.60;61.50;;;;;;5092887;28;20685;-72
2023/06/27 02:50:03;;;;;;;0.80;0.77;;;17.50;61.00;;;;;;5083995;28;20625;-72
2023/06/27 02:52:30;;;;;;;4.10;2.10;;;17.60;60.90;;;;;;5095392;28;20624;-72
2023/06/27 02:54:58;;;;;;;1.10;1.10;;;17.60;60.30;;;;;;5091540;28;20777;-72
2023/06/27 02:57:25;;;;;;;1.37;1.23;;;17.60;60.00;;;;;;5091253;28;21061;-72
2023/06/27 02:59:54;;;;;;;1.20;1.10;;;17.60;60.40;;;;;;5095459;28;21035;-72
2023/06/27 03:02:22;;;;;;;1.30;1.20;;;17.60;59.90;;;;;;5089607;28;20701;-72
2023/06/27 03:04:51;;;;;;;1.30;1.20;;;17.50;59.90;;;;;;5084395;28;20648;-72
2023/06/27 03:07:19;;;;;;;1.33;1.23;;;17.40;59.50;;;;;;5084340;28;20644;-72
2023/06/27 03:09:46;;;;;;;1.33;1.23;;;17.40;59.30;;;;;;5092112;28;20624;-72
2023/06/27 03:12:14;;;;;;;0.70;0.70;;;17.40;59.40;;;;;;5095384;28;20678;-72
2023/06/27 03:14:42;;;;;;;1.80;1.50;;;17.40;59.50;;;;;;5095835;28;20641;-72
2023/06/27 03:17:10;;;;;;;1.20;1.10;;;17.40;59.60;;;;;;5089264;28;20668;-72
2023/06/27 03:19:37;;;;;;;1.70;1.30;;;17.40;60.00;;;;;;5090459;28;20639;-72
2023/06/27 03:22:05;;;;;;;1.73;1.27;;;17.40;60.90;;;;;;5090870;28;20644;-72
2023/06/27 03:24:33;;;;;;;1.10;0.80;;;17.30;61.10;;;;;;5085114;28;20623;-72
2023/06/27 03:27:00;;;;;;;1.17;1.10;;;17.20;61.10;;;;;;5091091;28;20716;-72
2023/06/27 03:29:27;;;;;;;1.00;1.00;;;17.30;61.50;;;;;;5080778;28;20803;-72
2023/06/27 03:31:57;;;;;;;1.70;1.13;;;17.20;62.10;;;;;;5090951;28;20739;-72
2023/06/27 03:34:24;;;;;;;1.20;1.10;;;17.10;62.20;;;;;;5098006;28;20988;-72
2023/06/27 03:36:50;;;;;;;2.40;0.90;;;17.10;62.50;;;;;;5091372;28;20700;-72
2023/06/27 03:39:17;;;;;;;1.90;1.13;;;17.00;62.90;;;;;;5095223;28;21046;-72
2023/06/27 03:41:45;;;;;;;1.27;1.10;;;16.90;63.20;;;;;;5098198;28;20748;-72
2023/06/27 03:44:12;;;;;;;0.70;0.70;;;16.90;62.80;;;;;;5100437;28;21215;-72
2023/06/27 03:46:39;;;;;;;2.40;1.67;;;16.80;63.80;;;;;;5093500;28;20671;-72
2023/06/27 03:49:06;;;;;;;1.17;1.07;;;16.80;63.40;;;;;;5086842;28;20625;-72
2023/06/27 03:51:34;;;;;;;0.90;0.90;;;16.80;63.10;;;;;;5091418;28;20739;-72
2023/06/27 03:54:02;;;;;;;0.77;0.77;;;16.80;62.20;;;;;;5092676;28;20698;-72
2023/06/27 03:56:29;;;;;;;1.30;1.20;;;16.70;62.80;;;;;;5086999;28;20670;-72
2023/06/27 03:58:57;;;;;;;0.90;0.90;;;16.70;62.30;;;;;;5093636;28;20624;-72
2023/06/27 04:01:24;;;;;;;1.47;1.37;;;16.80;62.40;;;;;;5091796;28;20666;-72
2023/06/27 04:03:50;;;;;;;1.10;0.90;;;16.80;62.20;;;;;;5092979;28;20628;-72
2023/06/27 04:06:18;;;;;;;1.10;1.00;;;16.80;62.60;;;;;;5086261;28;20651;-72
2023/06/27 04:08:45;;;;;;;4.47;1.40;;;16.70;62.50;;;;;;5083756;28;21544;-72
2023/06/27 04:11:12;;;;;;;1.67;0.83;;;16.80;63.60;;;;;;5088118;28;20672;-72
2023/06/27 04:13:38;;;;;;;1.33;1.23;;;16.80;64.00;;;;;;5078688;28;20636;-72
2023/06/27 04:16:07;;;;;;;1.13;1.03;;;16.90;64.00;;;;;;5099512;28;20719;-72
2023/06/27 04:18:33;;;;;;;0.90;0.90;;;16.90;64.00;;;;;;5098554;28;20627;-72
2023/06/27 04:21:00;;;;;;;1.70;1.57;;;16.90;64.50;;;;;;5093946;28;20650;-72
2023/06/27 04:23:27;;;;;;;1.10;1.00;;;16.90;64.60;;;;;;5096411;28;20632;-72
2023/06/27 04:26:03;;;;;;;1.07;0.97;;;17.00;64.00;;;;;;5093154;28;20656;-72
2023/06/27 04:28:31;;;;;;;0.70;0.70;;;17.10;63.90;;;;;;5094018;28;20625;-72
2023/06/27 04:30:58;;;;;;;1.60;1.20;;;17.00;65.40;;;;;;5098880;28;20652;-72
2023/06/27 04:33:27;;;;;;;3.57;1.00;;;16.90;64.00;;;;;;5097102;28;21016;-72
2023/06/27 04:35:54;;;;;;;1.23;0.80;;;16.80;64.00;;;;;;5098017;28;20667;-71
2023/06/27 04:38:21;;;;;;;2.70;0.70;;;16.80;63.80;;;;;;5097198;28;20621;-71
2023/06/27 04:40:48;;;;;;;1.10;1.00;;;16.90;64.00;;;;;;5086845;28;20647;-71
2023/06/27 04:43:15;;;;;;;1.40;1.30;;;16.90;63.60;;;;;;5096781;27;20651;-69
2023/06/27 04:45:42;;;;;;;1.27;1.17;;;16.80;64.20;;;;;;5087095;28;20657;-70
2023/06/27 04:48:09;;;;;;;0.80;0.80;;;16.80;64.20;;;;;;5101294;28;20636;-71
2023/06/27 04:50:37;;;;;;;1.87;1.50;;;16.90;63.80;;;;;;5092204;28;20657;-71
2023/06/27 04:53:04;;;;;;;1.07;1.07;;;16.90;63.90;;;;;;5090638;28;20624;-72
2023/06/27 04:55:31;;;;;;;0.50;0.50;;;17.00;63.20;;;;;;5098365;28;20648;-71
2023/06/27 04:57:58;;;;;;;1.80;1.33;;;17.10;64.60;;;;;;5096012;28;20624;-72
2023/06/27 05:00:25;;;;;;;1.40;1.10;;;17.20;63.30;;;;;;5086620;28;20653;-73
2023/06/27 05:02:51;;;;;;;2.17;1.23;;;17.20;63.90;;;;;;5094525;28;20617;-74
2023/06/27 05:05:18;;;;;;;0.93;0.93;;;17.30;63.50;;;;;;5100856;28;20641;-74
2023/06/27 05:07:47;;;;;;;1.30;1.20;;;17.40;63.50;;;;;;5094535;28;20732;-73
2023/06/27 05:10:14;;;;;;;2.53;0.87;;;17.40;63.60;;;;;;5095123;28;20682;-72
2023/06/27 05:12:40;;;;;;;0.77;0.77;;;17.40;64.90;;;;;;5097702;28;20623;-72
2023/06/27 05:15:08;;;;;;;0.73;0.73;;;17.50;63.50;;;;;;5094845;28;20644;-72
2023/06/27 05:17:35;;;;;;;1.13;0.80;;;17.40;63.20;;;;;;5096376;28;21273;-72
2023/06/27 05:20:04;;;;;;;1.10;1.10;;;17.30;62.40;;;;;;5095644;28;21185;-71
2023/06/27 05:22:30;;;;;;;1.40;1.20;;;17.30;61.20;;;;;;5084695;28;21218;-72
2023/06/27 05:24:58;;;;;;;1.13;1.13;;;17.30;61.50;;;;;;5089015;28;21162;-73
2023/06/27 05:27:25;;;;;;;1.00;0.83;;;17.40;61.10;;;;;;5094313;28;20764;-73
2023/06/27 05:29:52;;;;;;;1.03;1.03;;;17.50;61.90;;;;;;5099195;28;20706;-71
2023/06/27 05:32:19;;;;;;;1.60;1.30;;;17.50;62.30;;;;;;5099396;28;20651;-73
2023/06/27 05:34:45;;;;;;;5.10;1.27;;;17.50;60.90;;;;;;5089108;28;20935;-74
2023/06/27 05:37:12;;;;;;;1.30;1.20;;;17.60;61.10;;;;;;5096795;28;20676;-73
2023/06/27 05:39:39;;;;;;;2.90;1.80;;;17.60;60.90;;;;;;5093141;28;20828;-71
2023/06/27 05:42:08;;;;;;;1.53;0.90;;;17.70;61.70;;;;;;5088284;28;20643;-71
2023/06/27 05:44:35;;;;;;;1.40;1.30;;;17.70;61.60;;;;;;5091347;28;20660;-72
2023/06/27 05:47:01;;;;;;;2.00;1.30;;;17.70;61.20;;;;;;5099739;28;20660;-72
2023/06/27 05:49:28;;;;;;;1.37;1.10;;;17.70;60.80;;;;;;5098972;27;20639;-72
2023/06/27 05:51:55;;;;;;;2.63;1.10;;;17.70;61.60;;;;;;5094923;28;20665;-71
2023/06/27 05:54:22;;;;;;;1.57;1.40;;;17.70;60.60;;;;;;5091442;28;20629;-71
2023/06/27 05:56:48;;;;;;;1.20;1.10;;;17.70;60.80;;;;;;5080032;28;21248;-71
2023/06/27 05:59:16;;;;;;;2.30;0.93;;;17.60;60.30;;;;;;5091477;28;21190;-71
2023/06/27 06:01:43;;;;;;;1.20;1.10;;;17.50;60.70;;;;;;5088792;28;20666;-72
2023/06/27 06:04:10;;;;;;;0.70;0.67;;;17.60;61.30;;;;;;5088009;28;21211;-71
2023/06/27 06:06:38;;;;;;;1.70;1.60;;;17.70;61.20;;;;;;5087934;28;20761;-71
2023/06/27 06:09:05;;;;;;;1.37;0.97;;;17.70;59.90;;;;;;5096140;28;20961;-71
2023/06/27 06:11:34;;;;;;;1.50;1.13;;;17.80;60.60;;;;;;5081995;28;20660;-71
2023/06/27 06:14:01;;;;;;;1.73;0.97;;;17.90;60.20;;;;;;5093964;28;20671;-71
2023/06/27 06:16:31;;;;;;;1.93;1.43;;;17.90;60.40;;;;;;5089688;28;20708;-71
2023/06/27 06:18:58;;;;;;;2.33;1.40;;;18.00;60.10;;;;;;5096439;28;21181;-71
2023/06/27 06:21:25;;;;;;;2.83;1.33;;;18.00;59.50;;;;;;5088590;28;20674;-72
2023/06/27 06:23:52;;;;;;;0.90;0.90;;;18.10;59.80;;;;;;5092184;28;21176;-71
2023/06/27 06:26:19;;;;;;;0.90;0.90;;;18.10;59.30;;;;;;5095778;28;20748;-72
2023/06/27 06:28:45;;;;;;;4.70;1.27;;;18.10;59.30;;;;;;5098238;28;20635;-72
2023/06/27 06:31:16;;;;;;;1.20;1.13;;;18.20;59.90;;;;;;5097358;28;20695;-72
2023/06/27 06:33:45;;;;;;;1.17;1.00;;;18.30;60.60;;;;;;5082008;28;20629;-72
2023/06/27 06:36:12;;;;;;;1.33;1.20;;;18.40;60.50;;;;;;5089955;28;20672;-71
2023/06/27 06:38:39;;;;;;;1.10;1.10;;;18.30;58.60;;;;;;5095668;28;20637;-71
2023/06/27 06:41:06;;;;;;;1.90;1.17;;;18.20;59.40;;;;;;5088618;28;20655;-71
2023/06/27 06:43:33;;;;;;;1.27;1.17;;;18.30;58.30;;;;;;5090722;28;20947;-71
2023/06/27 06:46:00;;;;;;;1.13;1.03;;;18.50;58.10;;;;;;5097785;28;20658;-72
2023/06/27 06:48:27;;;;;;;1.27;1.17;;;18.50;58.10;;;;;;5086689;28;20640;-71
2023/06/27 06:50:55;;;;;;;1.63;0.87;;;18.50;58.50;;;;;;5089507;28;20649;-72
2023/06/27 06:53:23;;;;;;;1.30;1.10;;;18.60;57.60;;;;;;5085400;28;20626;-72
2023/06/27 06:55:50;;;;;;;1.60;1.00;;;18.60;56.80;;;;;;5092336;28;20644;-71
2023/06/27 06:58:17;;;;;;;0.87;0.83;;;18.80;56.60;;;;;;5098350;28;20624;-72
2023/06/27 07:00:44;;;;;;;1.80;1.20;;;18.80;56.30;;;;;;5092794;28;21242;-72
2023/06/27 07:03:10;;;;;;;1.23;1.13;;;19.00;56.10;;;;;;5095041;28;21213;-72
2023/06/27 07:05:37;;;;;;;0.90;0.90;;;19.20;56.40;;;;;;5087177;28;20645;-72
2023/06/27 07:08:06;;;;;;;1.53;1.20;;;19.30;56.50;;;;;;5090421;28;20716;-72
2023/06/27 07:10:33;;;;;;;1.27;1.17;;;19.00;56.80;;;;;;5085713;28;20645;-72
2023/06/27 07:13:01;;;;;;;1.00;1.00;;;18.90;56.40;;;;;;5099605;28;20619;-72
2023/06/27 07:15:28;;;;;;;1.57;1.43;;;18.90;56.00;;;;;;5094407;28;21002;-72
2023/06/27 07:17:55;;;;;;;1.00;0.90;;;18.90;56.00;;;;;;5084014;28;20656;-72
2023/06/27 07:20:23;;;;;;;1.60;0.80;;;18.90;56.60;;;;;;5091611;28;21068;-72
2023/06/27 07:22:50;;;;;;;3.50;1.40;;;19.00;56.10;;;;;;5092903;28;20625;-72
2023/06/27 07:25:18;;;;;;;1.03;0.93;;;19.20;55.90;;;;;;5088091;28;20629;-71
2023/06/27 07:27:46;;;;;;;1.33;1.00;;;19.10;55.20;;;;;;5089787;28;21168;-72
2023/06/27 07:30:13;;;;;;;0.60;0.60;;;19.50;55.30;;;;;;5086772;28;21197;-72
2023/06/27 07:32:40;;;;;;;1.60;1.43;;;19.50;55.20;;;;;;5094057;28;20634;-72
2023/06/27 07:35:08;;;;;;;2.73;1.07;;;19.40;55.50;;;;;;5095895;28;20723;-72
2023/06/27 07:37:35;;;;;;;1.40;1.30;;;19.50;55.60;;;;;;5101552;28;20784;-71
2023/06/27 07:40:04;;;;;;;0.97;0.97;;;19.30;55.00;;;;;;5089048;28;20653;-72
2023/06/27 07:42:32;;;;;;;0.80;0.80;;;19.60;56.00;;;;;;5100763;28;20716;-72
2023/06/27 07:44:59;;;;;;;1.27;1.17;;;20.00;56.00;;;;;;5093988;28;20631;-72
2023/06/27 07:47:26;;;;;;;1.20;1.10;;;19.80;54.60;;;;;;5090047;28;20662;-72
2023/06/27 07:49:53;;;;;;;1.90;1.17;;;19.70;55.10;;;;;;5090100;28;20615;-72
2023/06/27 07:52:20;;;;;;;1.20;1.10;;;19.80;56.00;;;;;;5097269;28;20742;-72
2023/06/27 07:54:46;;;;;;;1.30;1.13;;;20.10;55.20;;;;;;5102144;28;20624;-72
2023/06/27 07:57:13;;;;;;;1.73;1.13;;;20.20;54.80;;;;;;5094650;28;20677;-72
2023/06/27 07:59:41;;;;;;;1.80;1.70;;;20.20;54.60;;;;;;5087960;28;20622;-72
2023/06/27 08:02:08;;;;;;;1.63;1.13;;;20.00;55.50;;;;;;5089002;28;20652;-72
2023/06/27 08:04:35;;;;;;;4.07;0.80;;;19.80;55.30;;;;;;5090337;28;20620;-72
2023/06/27 08:07:02;;;;;;;1.27;1.17;;;19.70;55.20;;;;;;5102812;28;20690;-72
2023/06/27 08:09:29;;;;;;;1.20;1.20;;;19.40;55.00;;;;;;5098228;28;20625;-72
2023/06/27 08:11:55;;;;;;;1.27;1.17;;;19.50;55.50;;;;;;5085846;28;21004;-72
2023/06/27 08:14:22;;;;;;;1.87;1.10;;;19.40;54.80;;;;;;5095099;28;20651;-72
2023/06/27 08:16:50;;;;;;;1.27;1.23;;;19.30;54.60;;;;;;5098420;28;20680;-72
2023/06/27 08:19:17;;;;;;;0.90;0.90;;;19.50;55.40;;;;;;5095896;28;20629;-72
2023/06/27 08:21:44;;;;;;;3.60;0.83;;;19.80;55.30;;;;;;5094501;28;20648;-71
2023/06/27 08:24:11;;;;;;;1.43;1.30;;;20.00;54.60;;;;;;5101678;28;20720;-72
2023/06/27 08:26:37;;;;;;;1.87;1.33;;;20.10;54.00;;;;;;5084760;28;20668;-72
2023/06/27 08:29:04;;;;;;;1.50;1.40;;;20.10;53.80;;;;;;5092357;28;20626;-72
2023/06/27 08:31:31;;;;;;;2.27;1.30;;;20.20;54.10;;;;;;5101501;28;21216;-72
2023/06/27 08:33:59;;;;;;;1.70;0.97;;;20.70;53.10;;;;;;5084901;28;21081;-72
2023/06/27 08:36:26;;;;;;;1.77;1.20;;;21.10;53.00;;;;;;5102701;28;20648;-72
2023/06/27 08:38:53;;;;;;;1.50;1.10;;;21.40;53.50;;;;;;5090268;28;20731;-72
2023/06/27 08:41:20;;;;;;;1.60;1.50;;;21.70;52.80;;;;;;5082842;28;20844;-72
2023/06/27 08:43:47;;;;;;;1.60;1.50;;;21.80;51.50;;;;;;5096425;28;20624;-72
2023/06/27 08:46:15;;;;;;;2.30;1.90;;;21.70;52.80;;;;;;5093414;27;20847;-72
2023/06/27 08:48:42;;;;;;;1.40;1.30;;;21.20;52.70;;;;;;5091467;28;20632;-72
2023/06/27 08:51:13;;;;;;;1.40;1.20;;;21.30;53.30;;;;;;5094812;28;20653;-72
2023/06/27 08:53:43;;;;;;;1.80;1.70;;;21.10;52.30;;;;;;5092218;28;20715;-72
2023/06/27 08:56:12;;;;;;;2.00;1.70;;;21.60;53.10;;;;;;5090214;28;20644;-71
2023/06/27 08:58:45;;;;;;;1.50;1.33;;;21.70;51.80;;;;;;5094162;28;20816;-72
2023/06/27 09:01:12;;;;;;;1.73;1.60;;;21.80;52.80;;;;;;5086378;28;20644;-72
2023/06/27 09:03:39;;;;;;;1.33;1.23;;;22.20;52.90;;;;;;5090764;28;20624;-72
2023/06/27 09:06:08;;;;;;;1.70;1.50;;;22.40;51.20;;;;;;5088673;28;20649;-72
2023/06/27 09:08:36;;;;;;;1.93;1.57;;;22.50;51.90;;;;;;5096609;28;20612;-72
2023/06/27 09:11:08;;;;;;;1.87;1.60;;;22.70;51.00;;;;;;5097135;28;20674;-72
2023/06/27 09:13:36;;;;;;;1.67;1.50;;;22.80;51.60;;;;;;5090197;28;20719;-72
2023/06/27 09:16:04;;;;;;;1.43;1.07;;;22.90;50.00;;;;;;5092611;28;20737;-72
2023/06/27 09:18:30;;;;;;;1.33;1.23;;;22.60;51.00;;;;;;5083348;28;20655;-72
2023/06/27 09:20:58;;;;;;;2.30;2.10;;;22.40;51.30;;;;;;5097627;28;20764;-72
2023/06/27 09:23:28;;;;;;;2.37;1.70;;;21.80;51.20;;;;;;5098251;28;20626;-72
2023/06/27 09:26:08;;;;;;;1.83;1.70;;;21.70;52.40;;;;;;5094679;28;20776;-71
2023/06/27 09:28:45;;;;;;;3.73;1.70;;;21.30;53.00;;;;;;5096999;28;20716;-72
2023/06/27 09:31:13;;;;;;;1.97;1.40;;;21.10;52.70;;;;;;5090924;28;20658;-72
2023/06/27 09:33:40;;;;;;;1.40;1.30;;;21.00;52.20;;;;;;5079009;28;20979;-72
2023/06/27 09:36:07;;;;;;;1.77;1.67;;;21.00;52.10;;;;;;5088534;28;20703;-72
2023/06/27 09:38:34;;;;;;;1.67;1.57;;;20.90;51.90;;;;;;5091715;28;20676;-72
2023/06/27 09:41:05;;;;;;;1.17;1.17;;;21.30;52.20;;;;;;5095532;28;20753;-72
2023/06/27 09:43:35;;;;;;;2.03;1.70;;;21.70;51.70;;;;;;5096592;28;20636;-72
2023/06/27 09:46:03;;;;;;;1.40;1.30;;;22.00;51.10;;;;;;5077623;28;21068;-72
2023/06/27 09:48:30;;;;;;;1.87;1.40;;;22.50;51.00;;;;;;5098271;28;20719;-72
2023/06/27 09:51:00;;;;;;;3.10;1.40;;;22.50;50.20;;;;;;5095020;28;20652;-72
2023/06/27 09:53:28;;;;;;;1.63;1.53;;;22.60;50.60;;;;;;5087179;28;20960;-72
2023/06/27 09:55:59;;;;;;;1.47;1.27;;;22.50;51.90;;;;;;5080109;28;20657;-72
2023/06/27 09:58:27;;;;;;;1.40;1.30;;;22.40;51.80;;;;;;5091162;28;21239;-72
2023/06/27 10:01:02;;;;;;;1.30;1.20;;;22.10;51.60;;;;;;5092448;28;21646;-72
2023/06/27 10:03:29;;;;;;;1.37;1.17;;;22.20;52.00;;;;;;5097593;28;20629;-72
2023/06/27 10:05:56;;;;;;;2.10;1.50;;;22.50;51.50;;;;;;5094564;28;20656;-72
2023/06/27 10:08:22;;;;;;;1.37;1.27;;;22.50;51.70;;;;;;5100422;27;20628;-72
2023/06/27 10:10:51;;;;;;;1.70;1.60;;;22.50;51.60;;;;;;5094052;28;20640;-76
2023/06/27 10:13:17;;;;;;;1.67;1.57;;;22.60;51.10;;;;;;5097096;27;20724;-72
2023/06/27 10:15:44;;;;;;;4.87;2.17;;;22.60;51.20;;;;;;5094522;28;21235;-72
2023/06/27 10:18:12;;;;;;;1.63;1.53;;;22.60;50.50;;;;;;5096155;28;21236;-72
2023/06/27 10:20:39;;;;;;;1.70;1.60;;;22.50;50.50;;;;;;5093190;28;20750;-72
2023/06/27 10:23:07;;;;;;;1.37;1.27;;;22.40;52.30;;;;;;5093109;28;20724;-73
2023/06/27 10:25:34;;;;;;;2.17;1.70;;;22.30;51.90;;;;;;5099031;28;21066;-74
2023/06/27 10:28:08;;;;;;;1.73;1.63;;;22.30;51.80;;;;;;5095484;28;20617;-73
2023/06/27 10:30:39;;;;;;;2.30;1.80;;;22.60;51.00;;;;;;5095948;28;20644;-71
2023/06/27 10:33:10;;;;;;;2.00;1.90;;;22.90;50.90;;;;;;5086932;28;20714;-71
2023/06/27 10:35:50;;;;;;;3.10;1.87;;;23.00;50.30;;;;;;5095053;28;21264;-72
2023/06/27 10:38:18;;;;;;;1.23;1.23;;;23.20;49.10;;;;;;5099667;28;20649;-71
2023/06/27 10:41:11;;;;;;;2.10;2.00;;;22.80;49.90;;;;;;5091885;28;21265;-72
2023/06/27 10:43:39;;;;;;;2.10;1.27;;;22.90;50.60;;;;;;5094880;28;20645;-71
2023/06/27 10:46:07;;;;;;;1.53;1.43;;;23.20;49.00;;;;;;5093774;28;20659;-72
2023/06/27 10:48:35;;;;;;;1.53;1.43;;;23.20;48.90;;;;;;5087652;28;20630;-71
2023/06/27 10:51:08;;;;;;;1.50;1.40;;;23.30;49.20;;;;;;5094301;28;20652;-72
2023/06/27 10:53:34;;;;;;;1.47;1.37;;;23.40;49.40;;;;;;5094780;28;20627;-71
2023/06/27 10:56:15;;;;;;;1.40;1.30;;;23.10;49.90;;;;;;5080916;28;20644;-72
2023/06/27 10:58:44;;;;;;;2.00;1.50;;;22.90;50.10;;;;;;5094902;28;20660;-72
2023/06/27 11:01:12;;;;;;;3.27;1.57;;;22.60;49.80;;;;;;5093395;28;20637;-71
2023/06/27 11:03:40;;;;;;;3.00;1.53;;;22.60;51.10;;;;;;5094326;28;20661;-72
2023/06/27 11:06:08;;;;;;;3.23;1.43;;;22.90;50.60;;;;;;5095183;28;20740;-72
2023/06/27 11:08:35;;;;;;;1.17;1.07;;;23.20;50.00;;;;;;5095294;28;21237;-72
2023/06/27 11:11:04;;;;;;;1.80;1.70;;;23.30;48.90;;;;;;5093498;28;20746;-72
2023/06/27 11:13:33;;;;;;;1.50;1.40;;;23.00;50.00;;;;;;5095287;28;20640;-71
2023/06/27 11:16:00;;;;;;;1.60;1.50;;;22.80;50.30;;;;;;5093985;28;20668;-71
2023/06/27 11:18:27;;;;;;;1.17;1.07;;;23.10;50.20;;;;;;5075221;28;21867;-71
2023/06/27 11:20:54;;;;;;;1.27;1.17;;;22.60;50.10;;;;;;5082159;28;20652;-72
2023/06/27 11:23:25;;;;;;;1.33;1.23;;;22.80;50.70;;;;;;5094758;28;20737;-72
2023/06/27 11:25:53;;;;;;;1.70;1.40;;;23.10;49.90;;;;;;5096446;28;20760;-72
2023/06/27 11:28:22;;;;;;;1.43;1.33;;;23.10;50.10;;;;;;5093850;28;20630;-71
2023/06/27 11:30:49;;;;;;;1.43;1.33;;;23.10;49.10;;;;;;5093166;28;20660;-71
2023/06/27 11:33:17;;;;;;;1.60;1.50;;;23.10;50.50;;;;;;5095601;28;20639;-72
2023/06/27 11:35:44;;;;;;;1.03;1.03;;;23.30;48.80;;;;;;5095838;28;20657;-72
2023/06/27 11:38:11;;;;;;;1.53;1.30;;;23.20;49.40;;;;;;5094700;28;20657;-72
2023/06/27 11:40:48;;;;;;;1.27;1.17;;;23.30;49.70;;;;;;5093699;28;20655;-72
2023/06/27 11:43:16;;;;;;;1.47;1.30;;;23.10;49.30;;;;;;5095395;28;20625;-72
2023/06/27 11:45:45;;;;;;;1.70;1.60;;;23.10;49.90;;;;;;5086933;28;20650;-71
2023/06/27 11:48:12;;;;;;;1.70;1.60;;;23.20;49.80;;;;;;5087735;28;20988;-72
2023/06/27 11:50:54;;;;;;;1.57;1.47;;;23.50;48.90;;;;;;5092767;28;20713;-72
2023/06/27 11:53:23;;;;;;;1.70;1.40;;;24.10;48.20;;;;;;5091498;28;20641;-72
2023/06/27 11:55:52;;;;;;;1.63;1.53;;;24.00;49.50;;;;;;5090518;28;20645;-72
2023/06/27 11:58:29;;;;;;;2.93;1.30;;;23.80;48.60;;;;;;5088680;28;20704;-72
2023/06/27 12:00:56;;;;;;;1.87;1.77;;;23.70;48.20;;;;;;5078574;28;20961;-72
2023/06/27 12:03:26;;;;;;;1.73;1.63;;;24.10;48.30;;;;;;5091438;28;20635;-72
2023/06/27 12:05:55;;;;;;;1.43;1.33;;;24.80;48.10;;;;;;5084274;28;21330;-72
2023/06/27 12:08:23;;;;;;;2.73;1.80;;;25.30;46.90;;;;;;5087513;28;20630;-72
2023/06/27 12:10:54;;;;;;;2.97;2.00;;;24.90;48.00;;;;;;5097262;28;20658;-72
2023/06/27 12:13:21;;;;;;;1.60;1.33;;;24.50;47.90;;;;;;5093983;28;20660;-72
2023/06/27 12:15:48;;;;;;;1.80;1.70;;;24.60;48.60;;;;;;5094314;28;20991;-72
2023/06/27 12:18:23;;;;;;;1.50;1.40;;;24.90;47.60;;;;;;5095878;28;20755;-72
2023/06/27 12:20:51;;;;;;;3.37;1.70;;;25.00;47.20;;;;;;5087259;28;20650;-72
2023/06/27 12:23:19;;;;;;;2.00;1.80;;;24.80;46.40;;;;;;5094853;28;20661;-72
2023/06/27 12:25:47;;;;;;;1.90;1.70;;;25.30;47.70;;;;;;5094892;28;20759;-72
2023/06/27 12:28:15;;;;;;;1.57;1.40;;;25.80;47.00;;;;;;5090444;28;20655;-72
2023/06/27 12:30:42;;;;;;;1.83;1.73;;;26.20;47.60;;;;;;5091817;28;20670;-72
2023/06/27 12:33:10;;;;;;;1.47;1.37;;;25.90;45.60;;;;;;5100998;28;20641;-72
2023/06/27 12:35:39;;;;;;;1.30;1.20;;;25.30;46.60;;;;;;5094732;28;20666;-72
2023/06/27 12:38:06;;;;;;;1.40;1.30;;;25.50;45.90;;;;;;5102194;28;20663;-72
2023/06/27 12:40:32;;;;;;;1.47;1.37;;;26.00;46.10;;;;;;5095484;28;20723;-72
2023/06/27 12:43:00;;;;;;;2.03;1.80;;;27.40;46.20;;;;;;5095565;28;21251;-72
2023/06/27 12:45:31;;;;;;;1.50;1.40;;;28.20;43.30;;;;;;5095229;28;20653;-72
2023/06/27 12:47:58;;;;;;;1.57;1.47;;;28.80;43.50;;;;;;5095572;28;21200;-72
2023/06/27 12:50:25;;;;;;;1.80;1.40;;;29.20;41.10;;;;;;5090375;28;20640;-72
2023/06/27 12:52:52;;;;;;;1.77;1.67;;;29.70;42.90;;;;;;5099691;28;20730;-72